createdAt,value
2023-05-05T00:01:35.816Z,101720.09
2023-05-05T00:04:03.003Z,101723.59
2023-05-05T00:06:29.882Z,101715.00
2023-05-05T00:08:58.140Z,101721.50
2023-05-05T00:11:25.933Z,101722.72
2023-05-05T00:13:52.928Z,101722.09
2023-05-05T00:16:19.945Z,101717.78
2023-05-05T00:18:47.250Z,101716.16
2023-05-05T00:21:14.213Z,101725.53
2023-05-05T00:23:41.150Z,101716.91
2023-05-05T00:26:09.418Z,101711.56
2023-05-05T00:28:36.514Z,101713.59
2023-05-05T00:31:03.436Z,101714.63
2023-05-05T00:33:30.532Z,101712.81
2023-05-05T00:35:57.385Z,101703.81
2023-05-05T00:38:24.259Z,101702.59
2023-05-05T00:40:51.140Z,101699.72
2023-05-05T00:43:19.293Z,101706.91
2023-05-05T00:45:47.896Z,101697.28
2023-05-05T00:48:16.871Z,101691.53
2023-05-05T00:50:44.969Z,101694.38
2023-05-05T00:53:13.487Z,101692.75
2023-05-05T00:55:41.442Z,101693.13
2023-05-05T00:58:09.924Z,101688.63
2023-05-05T01:00:38.132Z,101684.88
2023-05-05T01:03:05.798Z,101676.84
2023-05-05T01:05:43.406Z,101670.00
2023-05-05T01:08:33.301Z,101665.00
2023-05-05T01:11:11.828Z,101673.97
2023-05-05T01:13:52.513Z,101669.03
2023-05-05T01:16:26.769Z,101659.41
2023-05-05T01:19:01.253Z,101661.44
2023-05-05T01:21:35.870Z,101667.13
2023-05-05T01:24:42.993Z,101661.09
2023-05-05T01:27:48.210Z,101651.66
2023-05-05T01:30:37.928Z,101651.66
2023-05-05T01:33:14.450Z,101648.00
2023-05-05T01:35:47.061Z,101646.00
2023-05-05T01:38:19.180Z,101644.78
2023-05-05T01:40:56.200Z,101650.94
2023-05-05T01:43:27.610Z,101648.28
2023-05-05T01:45:56.494Z,101642.19
2023-05-05T01:48:25.895Z,101648.16
2023-05-05T01:50:54.064Z,101643.22
2023-05-05T01:53:23.930Z,101636.25
2023-05-05T01:55:52.850Z,101641.56
2023-05-05T01:58:22.115Z,101646.88
2023-05-05T02:00:50.851Z,101648.91
2023-05-05T02:03:22.719Z,101640.31
2023-05-05T02:05:53.743Z,101636.00
2023-05-05T02:08:22.204Z,101633.72
2023-05-05T02:10:50.445Z,101630.41
2023-05-05T02:13:20.420Z,101630.81
2023-05-05T02:15:49.661Z,101634.84
2023-05-05T02:18:18.537Z,101630.28
2023-05-05T02:20:46.951Z,101628.00
2023-05-05T02:23:15.163Z,101628.22
2023-05-05T02:25:46.076Z,101628.78
2023-05-05T02:28:19.972Z,101620.34
2023-05-05T02:30:57.444Z,101620.75
2023-05-05T02:33:28.945Z,101622.56
2023-05-05T02:35:59.434Z,101615.59
2023-05-05T02:38:30.493Z,101614.59
2023-05-05T02:41:01.360Z,101619.44
2023-05-05T02:43:33.873Z,101629.63
2023-05-05T02:46:00.967Z,101624.69
2023-05-05T02:48:29.602Z,101617.09
2023-05-05T02:50:57.096Z,101624.41
2023-05-05T02:53:27.877Z,101610.72
2023-05-05T02:56:05.506Z,101618.84
2023-05-05T02:58:42.932Z,101615.56
2023-05-05T03:01:28.028Z,101616.75
2023-05-05T03:04:06.223Z,101615.75
2023-05-05T03:06:42.451Z,101613.09
2023-05-05T03:09:15.812Z,101605.97
2023-05-05T03:11:49.833Z,101615.56
2023-05-05T03:14:21.040Z,101608.63
2023-05-05T03:16:49.755Z,101603.47
2023-05-05T03:19:20.155Z,101599.72
2023-05-05T03:21:48.305Z,101610.53
2023-05-05T03:24:18.719Z,101604.78
2023-05-05T03:26:47.810Z,101598.81
2023-05-05T03:29:15.760Z,101602.88
2023-05-05T03:31:42.853Z,101592.44
2023-05-05T03:34:09.781Z,101595.22
2023-05-05T03:36:36.839Z,101589.50
2023-05-05T03:39:03.905Z,101588.66
2023-05-05T03:41:32.224Z,101594.31
2023-05-05T03:43:59.255Z,101594.53
2023-05-05T03:46:26.266Z,101582.44
2023-05-05T03:48:53.217Z,101592.63
2023-05-05T03:51:20.176Z,101588.66
2023-05-05T03:53:47.450Z,101591.88
2023-05-05T03:56:14.324Z,101586.75
2023-05-05T03:58:42.562Z,101590.25
2023-05-05T04:01:09.547Z,101587.75
2023-05-05T04:03:36.531Z,101589.22
2023-05-05T04:06:03.846Z,101591.59
2023-05-05T04:08:30.726Z,101586.28
2023-05-05T04:10:57.648Z,101589.78
2023-05-05T04:13:24.684Z,101588.94
2023-05-05T04:15:52.945Z,101588.59
2023-05-05T04:18:19.804Z,101594.53
2023-05-05T04:20:47.155Z,101600.47
2023-05-05T04:23:14.032Z,101594.16
2023-05-05T04:25:41.155Z,101589.31
2023-05-05T04:28:08.048Z,101579.88
2023-05-05T04:30:34.938Z,101577.44
2023-05-05T04:33:03.327Z,101584.19
2023-05-05T04:35:30.559Z,101591.78
2023-05-05T04:37:57.414Z,101589.41
2023-05-05T04:40:26.078Z,101587.03
2023-05-05T04:42:53.115Z,101579.72
2023-05-05T04:45:20.139Z,101579.63
2023-05-05T04:47:47.210Z,101573.38
2023-05-05T04:50:16.483Z,101577.50
2023-05-05T04:52:43.367Z,101582.06
2023-05-05T04:55:11.432Z,101571.53
2023-05-05T04:57:38.486Z,101584.25
2023-05-05T05:00:08.166Z,101583.09
2023-05-05T05:02:37.404Z,101575.19
2023-05-05T05:05:05.287Z,101598.78
2023-05-05T05:07:33.615Z,101601.72
2023-05-05T05:10:00.702Z,101612.59
2023-05-05T05:12:27.545Z,101603.84
2023-05-05T05:14:54.424Z,101605.31
2023-05-05T05:17:22.464Z,101600.19
2023-05-05T05:19:49.375Z,101602.84
2023-05-05T05:22:16.284Z,101609.81
2023-05-05T05:24:44.519Z,101602.84
2023-05-05T05:27:11.971Z,101593.22
2023-05-05T05:29:38.972Z,101599.78
2023-05-05T05:32:06.103Z,101595.19
2023-05-05T05:34:33.072Z,101591.09
2023-05-05T05:36:59.946Z,101600.44
2023-05-05T05:39:27.038Z,101594.50
2023-05-05T05:41:55.394Z,101595.88
2023-05-05T05:44:22.327Z,101593.88
2023-05-05T05:46:49.439Z,101587.44
2023-05-05T05:49:16.662Z,101596.13
2023-05-05T05:51:48.763Z,101595.13
2023-05-05T05:54:15.662Z,101594.13
2023-05-05T05:56:42.583Z,101594.44
2023-05-05T05:59:10.776Z,101586.97
2023-05-05T06:01:37.749Z,101591.97
2023-05-05T06:04:04.847Z,101606.81
2023-05-05T06:06:31.933Z,101589.44
2023-05-05T06:08:58.894Z,101597.50
2023-05-05T06:11:26.038Z,101592.00
2023-05-05T06:13:52.925Z,101591.22
2023-05-05T06:16:21.248Z,101587.97
2023-05-05T06:18:48.165Z,101585.69
2023-05-05T06:21:15.182Z,101583.66
2023-05-05T06:23:42.211Z,101587.34
2023-05-05T06:26:09.105Z,101592.69
2023-05-05T06:28:36.065Z,101599.69
2023-05-05T06:31:03.074Z,101601.75
2023-05-05T06:33:31.313Z,101612.41
2023-05-05T06:35:58.201Z,101617.28
2023-05-05T06:38:25.172Z,101618.34
2023-05-05T06:40:52.055Z,101614.47
2023-05-05T06:43:18.957Z,101614.06
2023-05-05T06:45:45.986Z,101619.41
2023-05-05T06:48:12.933Z,101634.56
2023-05-05T06:50:41.331Z,101646.06
2023-05-05T06:53:08.386Z,101653.47
2023-05-05T06:55:35.364Z,101666.59
2023-05-05T06:58:02.580Z,101698.19
2023-05-05T07:00:29.499Z,101711.75
2023-05-05T07:03:02.673Z,101768.75
2023-05-05T07:05:33.161Z,101806.06
2023-05-05T07:08:01.378Z,101805.06
2023-05-05T07:10:28.418Z,101772.44
2023-05-05T07:12:55.459Z,101736.34
2023-05-05T07:15:28.696Z,101713.38
2023-05-05T07:17:57.026Z,101719.53
2023-05-05T07:20:24.683Z,101723.81
2023-05-05T07:22:51.666Z,101726.91
2023-05-05T07:25:20.210Z,101704.75
2023-05-05T07:27:47.101Z,101702.72
2023-05-05T07:30:18.158Z,101703.53
2023-05-05T07:32:46.149Z,101720.75
2023-05-05T07:35:13.693Z,101731.84
2023-05-05T07:37:40.638Z,101724.47
2023-05-05T07:40:09.172Z,101729.81
2023-05-05T07:42:37.868Z,101716.03
2023-05-05T07:45:06.717Z,101721.78
2023-05-05T07:47:33.868Z,101739.63
2023-05-05T07:50:01.407Z,101738.81
2023-05-05T07:52:44.153Z,101732.25
2023-05-05T07:55:15.175Z,101734.69
2023-05-05T07:57:43.474Z,101723.19
2023-05-05T08:00:13.312Z,101710.44
2023-05-05T08:02:41.290Z,101688.50
2023-05-05T08:05:09.422Z,101668.19
2023-05-05T08:07:40.807Z,101651.81
2023-05-05T08:10:10.218Z,101649.38
2023-05-05T08:12:37.375Z,101639.94
2023-05-05T08:15:07.634Z,101628.94
2023-05-05T08:17:50.087Z,101626.28
2023-05-05T08:20:18.314Z,101617.84
2023-05-05T08:22:46.855Z,101610.78
2023-05-05T08:25:14.660Z,101613.13
2023-05-05T08:27:43.174Z,101603.22
2023-05-05T08:30:12.299Z,101605.88
2023-05-05T08:32:39.327Z,101622.50
2023-05-05T08:35:07.886Z,101628.63
2023-05-05T08:37:35.217Z,101629.88
2023-05-05T08:40:02.176Z,101619.03
2023-05-05T08:42:37.746Z,101627.19
2023-05-05T08:45:08.522Z,101624.41
2023-05-05T08:47:38.061Z,101627.56
2023-05-05T08:50:09.727Z,101627.47
2023-05-05T08:52:41.930Z,101627.34
2023-05-05T08:55:17.857Z,101636.06
2023-05-05T08:57:53.866Z,101647.72
2023-05-05T09:00:21.449Z,101648.59
2023-05-05T09:02:50.560Z,101673.59
2023-05-05T09:05:18.601Z,101679.97
2023-05-05T09:07:49.233Z,101673.97
2023-05-05T09:10:16.364Z,101672.28
2023-05-05T09:12:43.770Z,101671.41
2023-05-05T09:15:13.308Z,101664.94
2023-05-05T09:17:43.382Z,101677.38
2023-05-05T09:20:14.359Z,101673.69
2023-05-05T09:22:44.683Z,101670.84
2023-05-05T09:25:13.863Z,101666.75
2023-05-05T09:27:43.594Z,101665.00
2023-05-05T09:30:14.215Z,101667.66
2023-05-05T09:32:50.662Z,101667.91
2023-05-05T09:35:20.444Z,101668.69
2023-05-05T09:37:48.120Z,101661.84
2023-05-05T09:40:17.942Z,101655.19
2023-05-05T09:42:45.348Z,101656.38
2023-05-05T09:45:27.272Z,101659.13
2023-05-05T09:47:59.055Z,101670.34
2023-05-05T09:50:30.952Z,101669.63
2023-05-05T09:53:01.115Z,101659.69
2023-05-05T09:55:28.898Z,101654.25
2023-05-05T09:57:56.089Z,101643.03
2023-05-05T10:00:37.714Z,101646.81
2023-05-05T10:03:04.691Z,101640.16
2023-05-05T10:05:33.042Z,101635.94
2023-05-05T10:08:13.502Z,101629.63
2023-05-05T10:10:53.901Z,101628.53
2023-05-05T10:13:23.093Z,101631.03
2023-05-05T10:15:52.200Z,101628.22
2023-05-05T10:18:22.193Z,101632.69
2023-05-05T10:20:57.300Z,101616.84
2023-05-05T10:23:31.922Z,101615.50
2023-05-05T10:26:03.641Z,101614.91
2023-05-05T10:28:37.092Z,101612.16
2023-05-05T10:31:24.242Z,101618.97
2023-05-05T10:33:58.404Z,101623.41
2023-05-05T10:36:29.344Z,101632.25
2023-05-05T10:38:57.829Z,101634.06
2023-05-05T10:41:26.627Z,101639.06
2023-05-05T10:43:57.381Z,101636.84
2023-05-05T10:46:26.724Z,101642.72
2023-05-05T10:49:01.730Z,101643.25
2023-05-05T10:51:45.698Z,101649.13
2023-05-05T10:54:24.507Z,101641.81
2023-05-05T10:56:52.367Z,101638.72
2023-05-05T10:59:42.929Z,101639.94
2023-05-05T11:02:27.395Z,101626.34
2023-05-05T11:05:16.734Z,101631.75
2023-05-05T11:07:49.102Z,101614.41
2023-05-05T11:10:19.676Z,101613.81
2023-05-05T11:13:19.076Z,101609.13
2023-05-05T11:15:46.290Z,101611.94
2023-05-05T11:18:36.540Z,101609.41
2023-05-05T11:21:15.988Z,101598.47
2023-05-05T11:23:50.832Z,101610.47
2023-05-05T11:26:48.855Z,101609.09
2023-05-05T11:29:15.818Z,101607.00
2023-05-05T11:31:42.761Z,101609.31
2023-05-05T11:34:28.954Z,101607.97
2023-05-05T11:37:05.645Z,101612.59
2023-05-05T11:39:59.254Z,101613.84
2023-05-05T11:42:27.103Z,101611.19
2023-05-05T11:44:54.861Z,101613.63
2023-05-05T11:47:30.964Z,101615.47
2023-05-05T11:49:58.646Z,101618.75
2023-05-05T11:52:30.267Z,101611.09
2023-05-05T11:55:02.244Z,101600.06
2023-05-05T11:57:30.767Z,101600.47
2023-05-05T12:00:00.831Z,101596.31
2023-05-05T12:02:29.969Z,101597.63
2023-05-05T12:04:58.949Z,101592.09
2023-05-05T12:07:29.419Z,101598.69
2023-05-05T12:09:56.947Z,101597.91
2023-05-05T12:12:36.967Z,101602.38
2023-05-05T12:15:05.411Z,101602.81
2023-05-05T12:17:39.713Z,101597.22
2023-05-05T12:20:08.962Z,101600.41
2023-05-05T12:22:36.387Z,101587.75
2023-05-05T12:25:06.315Z,101595.50
2023-05-05T12:27:35.420Z,101592.22
2023-05-05T12:30:15.174Z,101598.84
2023-05-05T12:32:43.335Z,101593.03
2023-05-05T12:35:12.063Z,101594.22
2023-05-05T12:37:39.388Z,101587.25
2023-05-05T12:40:08.733Z,101575.97
2023-05-05T12:42:40.944Z,101580.59
2023-05-05T12:45:17.600Z,101573.69
2023-05-05T12:47:44.711Z,101579.72
2023-05-05T12:50:11.783Z,101582.75
2023-05-05T12:52:43.912Z,101576.97
2023-05-05T12:55:12.108Z,101578.69
2023-05-05T12:58:00.702Z,101574.72
2023-05-05T13:00:29.077Z,101573.81
2023-05-05T13:02:56.810Z,101566.41
2023-05-05T13:05:32.470Z,101563.09
2023-05-05T13:07:59.789Z,101565.28
2023-05-05T13:10:28.022Z,101558.06
2023-05-05T13:12:57.649Z,101551.09
2023-05-05T13:15:24.905Z,101557.56
2023-05-05T13:17:59.962Z,101544.34
2023-05-05T13:20:27.073Z,101540.69
2023-05-05T13:22:54.158Z,101544.28
2023-05-05T13:25:21.132Z,101542.56
2023-05-05T13:27:48.021Z,101542.97
2023-05-05T13:30:16.593Z,101540.69
2023-05-05T13:32:43.570Z,101532.53
2023-05-05T13:35:11.659Z,101524.09
2023-05-05T13:37:41.358Z,101513.69
2023-05-05T13:40:10.699Z,101509.72
2023-05-05T13:42:37.586Z,101497.28
2023-05-05T13:45:05.803Z,101493.56
2023-05-05T13:47:34.113Z,101486.75
2023-05-05T13:50:01.827Z,101485.41
2023-05-05T13:52:29.890Z,101483.72
2023-05-05T13:54:58.610Z,101467.47
2023-05-05T13:57:25.728Z,101462.13
2023-05-05T13:59:52.690Z,101458.34
2023-05-05T14:02:19.557Z,101452.41
2023-05-05T14:04:47.881Z,101458.41
2023-05-05T14:07:14.847Z,101456.03
2023-05-05T14:09:41.723Z,101451.44
2023-05-05T14:12:08.589Z,101449.28
2023-05-05T14:14:36.007Z,101443.03
2023-05-05T14:17:03.019Z,101445.19
2023-05-05T14:19:29.937Z,101447.91
2023-05-05T14:21:58.343Z,101440.84
2023-05-05T14:24:25.902Z,101431.06
2023-05-05T14:26:52.822Z,101432.69
2023-05-05T14:29:19.897Z,101435.13
2023-05-05T14:31:46.781Z,101424.84
2023-05-05T14:34:13.834Z,101427.31
2023-05-05T14:36:41.192Z,101418.09
2023-05-05T14:39:09.494Z,101414.59
2023-05-05T14:41:36.320Z,101420.25
2023-05-05T14:44:03.692Z,101417.00
2023-05-05T14:46:31.816Z,101419.69
2023-05-05T14:48:58.840Z,101424.25
2023-05-05T14:51:25.961Z,101427.47
2023-05-05T14:53:52.837Z,101424.22
2023-05-05T14:56:22.595Z,101416.63
2023-05-05T14:58:49.580Z,101415.97
2023-05-05T15:01:16.688Z,101414.91
2023-05-05T15:03:43.771Z,101410.84
2023-05-05T15:06:10.783Z,101408.47
2023-05-05T15:08:38.934Z,101405.00
2023-05-05T15:11:06.259Z,101410.16
2023-05-05T15:13:35.352Z,101404.50
2023-05-05T15:16:02.416Z,101404.50
2023-05-05T15:18:29.307Z,101395.06
2023-05-05T15:20:56.176Z,101392.34
2023-05-05T15:23:23.261Z,101400.19
2023-05-05T15:25:50.333Z,101398.28
2023-05-05T15:28:18.588Z,101402.59
2023-05-05T15:30:46.820Z,101393.66
2023-05-05T15:33:13.731Z,101391.44
2023-05-05T15:35:40.612Z,101389.78
2023-05-05T15:38:07.707Z,101403.50
2023-05-05T15:40:34.761Z,101411.03
2023-05-05T15:43:01.749Z,101419.84
2023-05-05T15:45:28.631Z,101434.53
2023-05-05T15:47:56.861Z,101437.38
2023-05-05T15:50:23.902Z,101437.53
2023-05-05T15:52:50.864Z,101429.06
2023-05-05T15:55:17.885Z,101425.34
2023-05-05T15:57:44.866Z,101422.53
2023-05-05T16:00:15.164Z,101418.63
2023-05-05T16:02:42.214Z,101430.34
2023-05-05T16:05:11.172Z,101426.47
2023-05-05T16:07:38.621Z,101424.25
2023-05-05T16:10:07.523Z,101430.63
2023-05-05T16:12:34.561Z,101434.84
2023-05-05T16:15:01.537Z,101432.91
2023-05-05T16:17:28.558Z,101435.28
2023-05-05T16:19:55.822Z,101441.69
2023-05-05T16:22:24.063Z,101432.97
2023-05-05T16:24:50.980Z,101444.22
2023-05-05T16:27:17.877Z,101455.75
2023-05-05T16:29:44.736Z,101459.75
2023-05-05T16:32:11.674Z,101462.38
2023-05-05T16:34:38.590Z,101462.84
2023-05-05T16:37:05.543Z,101460.09
2023-05-05T16:39:33.894Z,101462.72
2023-05-05T16:42:00.762Z,101476.13
2023-05-05T16:44:27.620Z,101481.91
2023-05-05T16:46:54.546Z,101490.94
2023-05-05T16:49:23.982Z,101494.50
2023-05-05T16:51:53.310Z,101505.09
2023-05-05T16:54:20.227Z,101502.81
2023-05-05T16:56:48.488Z,101516.88
2023-05-05T16:59:16.937Z,101533.34
2023-05-05T17:01:43.948Z,101548.97
2023-05-05T17:04:11.791Z,101534.50
2023-05-05T17:06:38.731Z,101528.53
2023-05-05T17:09:06.240Z,101526.53
2023-05-05T17:11:33.152Z,101521.41
2023-05-05T17:14:01.555Z,101525.34
2023-05-05T17:16:28.573Z,101523.44
2023-05-05T17:18:55.580Z,101516.63
2023-05-05T17:21:23.183Z,101508.88
2023-05-05T17:23:50.238Z,101500.69
2023-05-05T17:26:17.183Z,101502.78
2023-05-05T17:28:44.058Z,101506.06
2023-05-05T17:31:12.492Z,101508.53
2023-05-05T17:33:39.351Z,101514.69
2023-05-05T17:36:07.236Z,101514.69
2023-05-05T17:38:34.123Z,101518.41
2023-05-05T17:41:01.048Z,101513.50
2023-05-05T17:43:27.904Z,101519.44
2023-05-05T17:45:54.916Z,101522.13
2023-05-05T17:48:23.265Z,101508.16
2023-05-05T17:50:50.300Z,101514.78
2023-05-05T17:53:17.228Z,101513.50
2023-05-05T17:55:45.710Z,101510.38
2023-05-05T17:58:12.631Z,101507.72
2023-05-05T18:00:39.559Z,101510.38
2023-05-05T18:03:06.532Z,101508.16
2023-05-05T18:05:35.223Z,101511.88
2023-05-05T18:08:02.397Z,101510.47
2023-05-05T18:10:29.428Z,101503.72
2023-05-05T18:12:56.356Z,101506.00
2023-05-05T18:15:23.616Z,101502.59
2023-05-05T18:17:50.532Z,101496.22
2023-05-05T18:20:18.195Z,101499.38
2023-05-05T18:22:46.866Z,101493.44
2023-05-05T18:25:13.969Z,101490.75
2023-05-05T18:27:41.534Z,101487.03
2023-05-05T18:30:09.529Z,101479.00
2023-05-05T18:32:37.312Z,101475.50
2023-05-05T18:35:05.722Z,101480.25
2023-05-05T18:37:32.680Z,101478.84
2023-05-05T18:40:00.986Z,101476.41
2023-05-05T18:42:27.855Z,101479.75
2023-05-05T18:44:54.704Z,101482.28
2023-05-05T18:47:21.750Z,101474.09
2023-05-05T18:49:49.660Z,101477.44
2023-05-05T18:52:16.840Z,101477.06
2023-05-05T18:54:43.803Z,101479.97
2023-05-05T18:57:12.112Z,101472.75
2023-05-05T18:59:38.977Z,101478.94
2023-05-05T19:02:07.777Z,101473.00
2023-05-05T19:04:37.840Z,101477.53
2023-05-05T19:07:05.122Z,101479.38
2023-05-05T19:09:32.092Z,101483.69
2023-05-05T19:11:59.123Z,101486.56
2023-05-05T19:14:27.348Z,101491.94
2023-05-05T19:16:55.765Z,101489.47
2023-05-05T19:19:22.983Z,101490.75
2023-05-05T19:21:49.907Z,101492.81
2023-05-05T19:24:17.069Z,101497.59
2023-05-05T19:26:44.183Z,101493.25
2023-05-05T19:29:11.158Z,101487.91
2023-05-05T19:31:39.395Z,101484.63
2023-05-05T19:34:06.389Z,101487.75
2023-05-05T19:36:34.529Z,101492.50
2023-05-05T19:39:03.644Z,101494.59
2023-05-05T19:41:30.923Z,101499.53
2023-05-05T19:43:57.971Z,101506.97
2023-05-05T19:46:26.456Z,101502.44
2023-05-05T19:48:54.853Z,101509.41
2023-05-05T19:51:21.951Z,101508.16
2023-05-05T19:53:48.916Z,101513.16
2023-05-05T19:56:17.007Z,101502.06
2023-05-05T19:58:55.429Z,101512.59
2023-05-05T20:01:22.823Z,101524.19
2023-05-05T20:03:49.916Z,101523.63
2023-05-05T20:06:18.283Z,101529.47
2023-05-05T20:08:45.350Z,101536.53
2023-05-05T20:11:13.655Z,101531.00
2023-05-05T20:13:40.651Z,101537.00
2023-05-05T20:16:08.222Z,101537.41
2023-05-05T20:18:35.214Z,101532.94
2023-05-05T20:21:02.486Z,101529.50
2023-05-05T20:23:30.995Z,101541.03
2023-05-05T20:25:58.916Z,101536.50
2023-05-05T20:28:25.834Z,101544.94
2023-05-05T20:30:52.928Z,101547.84
2023-05-05T20:33:20.000Z,101547.84
2023-05-05T20:35:47.562Z,101550.31
2023-05-05T20:38:14.526Z,101555.91
2023-05-05T20:40:42.741Z,101554.09
2023-05-05T20:43:09.625Z,101553.25
2023-05-05T20:45:37.064Z,101551.22
2023-05-05T20:48:05.221Z,101553.75
2023-05-05T20:50:32.283Z,101544.75
2023-05-05T20:52:59.238Z,101546.38
2023-05-05T20:55:26.429Z,101544.31
2023-05-05T20:57:54.750Z,101540.19
2023-05-05T21:00:21.951Z,101537.53
2023-05-05T21:02:48.926Z,101541.00
2023-05-05T21:05:15.995Z,101538.97
2023-05-05T21:07:43.025Z,101535.28
2023-05-05T21:10:11.120Z,101532.19
2023-05-05T21:12:39.711Z,101533.22
2023-05-05T21:15:10.087Z,101532.19
2023-05-05T21:17:37.323Z,101531.59
2023-05-05T21:20:05.412Z,101539.59
2023-05-05T21:22:32.346Z,101535.88
2023-05-05T21:25:10.590Z,101532.81
2023-05-05T21:27:37.495Z,101524.53
2023-05-05T21:30:06.755Z,101534.75
2023-05-05T21:32:36.895Z,101525.13
2023-05-05T21:35:05.996Z,101519.38
2023-05-05T21:37:33.241Z,101524.06
2023-05-05T21:40:00.223Z,101526.97
2023-05-05T21:42:30.361Z,101530.47
2023-05-05T21:44:57.294Z,101521.22
2023-05-05T21:47:24.723Z,101533.97
2023-05-05T21:50:00.746Z,101533.56
2023-05-05T21:52:27.811Z,101533.78
2023-05-05T21:54:54.713Z,101540.56
2023-05-05T21:57:21.602Z,101537.28
2023-05-05T21:59:48.788Z,101536.25
2023-05-05T22:02:15.663Z,101533.19
2023-05-05T22:04:42.718Z,101529.06
2023-05-05T22:07:31.072Z,101528.44
2023-05-05T22:10:11.430Z,101529.88
2023-05-05T22:12:38.720Z,101534.41
2023-05-05T22:15:07.767Z,101530.50
2023-05-05T22:17:34.941Z,101524.72
2023-05-05T22:20:01.889Z,101529.88
2023-05-05T22:22:30.245Z,101529.66
2023-05-05T22:24:57.196Z,101529.22
2023-05-05T22:27:24.778Z,101536.84
2023-05-05T22:29:51.659Z,101532.28
2023-05-05T22:32:20.358Z,101532.50
2023-05-05T22:34:47.402Z,101534.56
2023-05-05T22:37:14.614Z,101543.59
2023-05-05T22:39:42.852Z,101534.75
2023-05-05T22:42:09.821Z,101543.81
2023-05-05T22:44:36.739Z,101537.00
2023-05-05T22:47:03.854Z,101537.66
2023-05-05T22:49:31.603Z,101529.19
2023-05-05T22:51:58.582Z,101531.84
2023-05-05T22:54:25.640Z,101531.84
2023-05-05T22:56:53.846Z,101535.13
2023-05-05T22:59:20.757Z,101533.50
2023-05-05T23:01:47.640Z,101532.47
2023-05-05T23:04:14.700Z,101535.59
2023-05-05T23:06:41.760Z,101530.66
2023-05-05T23:09:09.177Z,101535.59
2023-05-05T23:11:36.151Z,101534.34
2023-05-05T23:14:04.410Z,101532.88
2023-05-05T23:16:31.486Z,101534.28
2023-05-05T23:18:58.396Z,101534.28
2023-05-05T23:21:25.406Z,101534.28
2023-05-05T23:23:52.375Z,101537.38
2023-05-05T23:26:19.319Z,101540.91
2023-05-05T23:28:46.269Z,101536.00
2023-05-05T23:31:14.523Z,101535.41
2023-05-05T23:33:41.428Z,101540.28
2023-05-05T23:36:09.094Z,101530.47
2023-05-05T23:38:36.060Z,101537.47
2023-05-05T23:41:02.968Z,101534.16
2023-05-05T23:43:29.896Z,101537.25
2023-05-05T23:45:56.907Z,101540.94
2023-05-05T23:48:25.394Z,101541.38
2023-05-05T23:50:52.722Z,101535.41
2023-05-05T23:53:19.625Z,101540.97
2023-05-05T23:55:46.556Z,101539.53
2023-05-05T23:58:13.502Z,101534.63
